Walnut Ridge, AR

8:34 AM CDT on October 24, 2014 (GMT -0500)
Walnut Ridge Regional | Change Station
CLOSE
Current Station
Airport
Location: Walnut Ridge,
Elevation: 272 ft
Nearby Weather Stations

Elev 272 ft 36.12 °N, 90.93 °W | Updated 19 minutes ago

Mostly Cloudy
Mostly Cloudy
48 °F
Feels Like 48 °F
N
0
Wind Variable Wind from North

Today
High -- | Low -- °F
--% Chance of Precip.
Yesterday
High -- | Low -- °F
Precip. -- in
7:18 AM 6:16 PM
New Moon, 0% visible
Pressure 30.15 in
Visibility 5.0 miles
Clouds Mostly Cloudy 5000 ft
Dew Point 45 °F
Humidity 87%
Rainfall 0.00 in
Snow Depth Not available.
UV 0 out of 12
Pollen 1.00 out of 12
Air Quality Not available.
Flu Activity Sporadic
METAR KARG 241315Z AUTO 00000KT 5SM BKN050 09/07 A3015 RMK AO1

More Conditions Fewer Conditions

Pressure 30.15 in
Visibility 5.0 miles
Clouds Mostly Cloudy 5000 ft
Dew Point 45 °F
Humidity 87%
Rainfall 0.00 in
Snow Depth Not available.
UV 0 out of 12
Pollen 1.00 out of 12
Air Quality Not available.
Flu Activity Sporadic
METAR KARG 241315Z AUTO 00000KT 5SM BKN050 09/07 A3015 RMK AO1

More Conditions Fewer Conditions

Nowcast | as of 7:17 am CDT on October 24, 2014

Some patchy dense fog has developed in favored locations across the Tennessee and Mississippi River valleys. While most locations will not experience visibilities down to a quarter mile...conditions can rapidly change over small distances where dense fog has developed. Visibilities will rapidly improve after sunrise. Tvt

×

10-Day Weather Forecast

Almanac

Astronomy

Oct. 24, 2014 Rise Set
Actual Time 7:18 AM CDT 6:16 PM CDT
Civil Twilight 6:52 AM CDT 6:42 PM CDT
Nautical Twilight 6:22 AM CDT 7:12 PM CDT
Astronomical Twilight 5:52 AM CDT 7:42 PM CDT
Moon 7:57 AM CDT 6:58 PM CDT
Length of Visible Light 11h 50m
Length of Day
10h 57m
Tomorrow will be 2m 6s shorter.
New Moon, 0% of the Moon is Illuminated
Today
New Moon
Oct 30
First Quarter
Nov 6
Full
Nov 14
Last Quarter
Nov 22
New

Today's Extremes

State Highs State Lows

Community

WunderPhotos

Upload Photos

1,764,550 photos uploaded!

WunderBlogs® & News

Nearby

Snow Depth

Station Depth Elevation
No new snow has been reported.

Earthquake Activity

City Distance Mag. Time & Date
No recent earthquake activity has been reported nearby.
Minimum magnitude displayed is 2.5.

Coastal Water Temperatures

Place Temperature
No Stations Reporting

Nearby Weather Stations